CNY8 weather

Toronto (Sunnybrook Medical Centre) Heliport
Toronto, Ontario, Canada

Public forecast

Using degrees Celsius for public forecast. Weather courtesy of forecast.io.

Closest aviation weather report (METAR) to Toronto (Sunnybrook Medical Centre) Heliport

Closest report is Billy Bishop Toronto City Centre Airport, 5.7 nm (10.6 km) S. Retrieved 2019/10/21 14:00 UTC (12 minutes ago):

CYTZ 211400Z AUTO 07013KT 9SM CLR 12/10 A3006 RMK SLP183

Closest aviation forecast (TAF) to Toronto (Sunnybrook Medical Centre) Heliport

Closest forecast is Billy Bishop Toronto City Centre Airport, 5.7 nm (10.6 km) S. Retrieved 2019/10/21 14:45 UTC (0 seconds ago):

TAF CYTZ 211341Z 2114/2214 07010KT P6SM SKC FM211600 07012G22KT P6SM FEW009 BECMG 2117/2119 08015G25KT FEW012 BKN220 FM220100 08015KT P6SM FEW010 BKN080 OVC180 TEMPO 2201/2205 P6SM -SHRA OVC060 FM220500 11010KT P6SM -RA FEW008 OVC050 FM220700 12012KT 4SM RA BR SCT008 OVC020 FM220900 13012KT 3SM RA BR OVC008 FM221200 16012KT 2SM -RA BR OVC005 RMK FCST BASED ON AUTO OBS NXT FCST BY 212000Z